createdAt,value
2022-10-15T00:01:42.945Z,9.88
2022-10-15T00:04:12.616Z,6.40
2022-10-15T00:06:40.877Z,12.48
2022-10-15T00:09:09.192Z,10.63
2022-10-15T00:11:37.698Z,9.48
2022-10-15T00:14:06.002Z,14.48
2022-10-15T00:16:34.685Z,8.07
2022-10-15T00:19:02.965Z,11.15
2022-10-15T00:21:32.620Z,15.45
2022-10-15T00:24:00.873Z,14.77
2022-10-15T00:26:29.665Z,15.85
2022-10-15T00:28:59.081Z,13.05
2022-10-15T00:31:28.297Z,13.02
2022-10-15T00:33:57.328Z,16.05
2022-10-15T00:36:26.851Z,18.67
2022-10-15T00:38:56.870Z,16.23
2022-10-15T00:41:26.124Z,18.98
2022-10-15T00:43:55.183Z,27.17
2022-10-15T00:46:25.717Z,15.30
2022-10-15T00:48:57.504Z,24.55
2022-10-15T00:51:29.043Z,20.58
2022-10-15T00:53:58.733Z,17.13
2022-10-15T00:56:28.717Z,22.23
2022-10-15T00:58:57.860Z,26.20
2022-10-15T01:01:26.735Z,15.73
2022-10-15T01:03:56.312Z,22.70
2022-10-15T01:06:24.830Z,27.25
2022-10-15T01:08:53.644Z,20.17
2022-10-15T01:11:38.398Z,26.70
2022-10-15T01:14:11.371Z,20.85
2022-10-15T01:16:42.102Z,21.63
2022-10-15T01:19:15.235Z,25.52
2022-10-15T01:21:46.281Z,22.52
2022-10-15T01:24:29.980Z,23.60
2022-10-15T01:27:13.086Z,17.92
2022-10-15T01:29:50.106Z,27.80
2022-10-15T01:32:23.532Z,21.27
2022-10-15T01:34:55.100Z,29.17
2022-10-15T01:37:26.394Z,32.72
2022-10-15T01:39:57.978Z,29.77
2022-10-15T01:42:29.953Z,27.88
2022-10-15T01:45:01.097Z,26.20
2022-10-15T01:47:32.651Z,31.38
2022-10-15T01:50:02.114Z,26.48
2022-10-15T01:52:32.000Z,27.65
2022-10-15T01:55:01.387Z,31.67
2022-10-15T01:57:31.440Z,21.80
2022-10-15T01:59:59.967Z,31.23
2022-10-15T02:02:28.227Z,22.73
2022-10-15T02:04:57.811Z,32.03
2022-10-15T02:07:33.516Z,22.85
2022-10-15T02:10:05.880Z,26.52
2022-10-15T02:12:39.002Z,17.55
2022-10-15T02:15:09.532Z,29.65
2022-10-15T02:17:40.505Z,32.60
2022-10-15T02:20:14.319Z,34.42
2022-10-15T02:22:45.798Z,30.23
2022-10-15T02:25:17.042Z,27.85
2022-10-15T02:27:46.549Z,31.48
2022-10-15T02:30:15.155Z,29.05
2022-10-15T02:32:44.381Z,36.63
2022-10-15T02:35:14.153Z,21.30
2022-10-15T02:37:48.952Z,27.40
2022-10-15T02:40:17.303Z,24.83
2022-10-15T02:42:45.600Z,31.50
2022-10-15T02:45:13.894Z,33.55
2022-10-15T02:47:42.138Z,34.05
2022-10-15T02:50:10.757Z,33.05
2022-10-15T02:52:40.393Z,32.60
2022-10-15T02:55:08.898Z,29.88
2022-10-15T02:57:37.172Z,28.33
2022-10-15T03:00:05.866Z,33.05
2022-10-15T03:02:34.113Z,35.65
2022-10-15T03:05:02.347Z,35.95
2022-10-15T03:07:30.641Z,38.97
2022-10-15T03:10:00.320Z,36.13
2022-10-15T03:12:28.593Z,29.40
2022-10-15T03:14:56.881Z,24.27
2022-10-15T03:17:25.333Z,31.52
2022-10-15T03:19:53.861Z,30.92
2022-10-15T03:22:22.104Z,30.42
2022-10-15T03:24:50.370Z,17.90
2022-10-15T03:27:20.325Z,30.83
2022-10-15T03:29:48.733Z,29.10
2022-10-15T03:32:17.061Z,24.98
2022-10-15T03:34:45.291Z,32.05
2022-10-15T03:37:13.578Z,32.67
2022-10-15T03:39:42.166Z,32.50
2022-10-15T03:42:10.581Z,33.55
2022-10-15T03:44:40.204Z,31.75
2022-10-15T03:47:08.466Z,26.83
2022-10-15T03:49:36.733Z,30.67
2022-10-15T03:52:05.026Z,28.35
2022-10-15T03:54:33.286Z,32.85
2022-10-15T03:57:01.553Z,28.35
2022-10-15T03:59:29.831Z,26.92
2022-10-15T04:01:59.475Z,29.17
2022-10-15T04:04:27.698Z,27.27
2022-10-15T04:06:55.973Z,28.65
2022-10-15T04:09:24.243Z,24.85
2022-10-15T04:11:52.541Z,15.02
2022-10-15T04:14:21.067Z,24.75
2022-10-15T04:16:49.336Z,25.77
2022-10-15T04:19:18.994Z,28.00
2022-10-15T04:21:47.241Z,29.30
2022-10-15T04:24:15.497Z,26.73
2022-10-15T04:26:43.777Z,28.15
2022-10-15T04:29:12.034Z,19.15
2022-10-15T04:31:40.314Z,26.48
2022-10-15T04:34:08.687Z,28.10
2022-10-15T04:36:39.089Z,31.27
2022-10-15T04:39:09.758Z,31.33
2022-10-15T04:41:40.554Z,23.98
2022-10-15T04:44:09.052Z,14.70
2022-10-15T04:46:37.314Z,14.55
2022-10-15T04:49:05.568Z,10.80
2022-10-15T04:51:33.845Z,17.75
2022-10-15T04:54:05.914Z,14.15
2022-10-15T04:56:34.168Z,13.15
2022-10-15T04:59:02.432Z,14.27
2022-10-15T05:01:30.675Z,10.07
2022-10-15T05:03:58.963Z,14.98
2022-10-15T05:06:27.231Z,8.90
2022-10-15T05:08:55.527Z,13.13
2022-10-15T05:11:25.862Z,12.73
2022-10-15T05:13:54.775Z,11.45
2022-10-15T05:16:24.302Z,11.15
2022-10-15T05:18:53.305Z,11.50
2022-10-15T05:21:21.777Z,12.95
2022-10-15T05:23:50.309Z,18.67
2022-10-15T05:26:19.789Z,23.27
2022-10-15T05:28:49.532Z,8.55
2022-10-15T05:31:19.319Z,35.58
2022-10-15T05:33:48.044Z,26.75
2022-10-15T05:36:17.765Z,17.60
2022-10-15T05:38:46.101Z,20.00
2022-10-15T05:41:14.441Z,14.30
2022-10-15T05:43:42.692Z,6.78
2022-10-15T05:46:12.353Z,17.65
2022-10-15T05:48:40.625Z,21.85
2022-10-15T05:51:09.537Z,18.67
2022-10-15T05:53:37.952Z,27.80
2022-10-15T05:56:06.709Z,22.25
2022-10-15T05:58:37.371Z,25.40
2022-10-15T06:01:07.089Z,22.55
2022-10-15T06:03:37.140Z,27.40
2022-10-15T06:06:05.643Z,26.67
2022-10-15T06:08:33.974Z,23.65
2022-10-15T06:11:06.991Z,24.65
2022-10-15T06:16:05.914Z,25.40
2022-10-15T06:18:34.216Z,24.75
2022-10-15T06:21:03.896Z,24.02
2022-10-15T06:23:32.341Z,20.98
2022-10-15T06:26:03.549Z,20.77
2022-10-15T06:28:32.039Z,25.38
2022-10-15T06:31:00.810Z,23.23
2022-10-15T06:33:29.360Z,20.52
2022-10-15T06:35:57.865Z,23.15
2022-10-15T06:38:27.492Z,19.80
2022-10-15T06:40:55.822Z,21.42
2022-10-15T06:43:24.763Z,21.63
2022-10-15T06:45:53.272Z,20.35
2022-10-15T06:48:21.538Z,21.35
2022-10-15T06:50:49.837Z,22.45
2022-10-15T06:53:18.093Z,20.85
2022-10-15T06:55:47.745Z,19.05
2022-10-15T06:58:16.002Z,17.88
2022-10-15T07:00:44.309Z,20.60
2022-10-15T07:03:12.613Z,16.45
2022-10-15T07:05:40.879Z,17.90
2022-10-15T07:08:09.156Z,14.90
2022-10-15T07:10:37.457Z,15.15
2022-10-15T07:13:07.122Z,14.00
2022-10-15T07:15:35.401Z,15.27
2022-10-15T07:18:04.020Z,12.18
2022-10-15T07:20:32.791Z,12.48
2022-10-15T07:23:03.106Z,10.73
2022-10-15T07:25:31.526Z,10.93
2022-10-15T07:27:59.841Z,14.57
2022-10-15T07:30:29.477Z,11.85
2022-10-15T07:32:57.984Z,8.88
2022-10-15T07:35:26.437Z,10.57
2022-10-15T07:37:54.731Z,8.07
2022-10-15T07:40:23.041Z,10.10
2022-10-15T07:42:54.547Z,7.20
2022-10-15T07:45:22.893Z,9.43
2022-10-15T07:47:52.572Z,6.70
2022-10-15T07:50:21.305Z,8.75
2022-10-15T07:52:49.726Z,8.57
2022-10-15T07:55:18.071Z,7.72
2022-10-15T07:57:46.595Z,9.75
2022-10-15T08:00:14.974Z,8.77
2022-10-15T08:02:43.301Z,6.78
2022-10-15T08:05:12.978Z,5.70
2022-10-15T08:07:41.948Z,4.95
2022-10-15T08:10:11.943Z,5.95
2022-10-15T08:12:40.249Z,5.85
2022-10-15T08:15:09.031Z,6.47
2022-10-15T08:17:37.307Z,5.05
2022-10-15T08:20:06.179Z,6.90
2022-10-15T08:22:36.237Z,4.82
2022-10-15T08:25:04.755Z,6.07
2022-10-15T08:27:33.173Z,6.20
2022-10-15T08:30:02.009Z,7.95
2022-10-15T08:32:30.324Z,5.22
2022-10-15T08:34:58.637Z,4.88
2022-10-15T08:37:26.984Z,5.90
2022-10-15T08:39:56.622Z,4.57
2022-10-15T08:42:30.367Z,5.50
2022-10-15T08:45:00.237Z,4.65
2022-10-15T08:47:30.876Z,5.72
2022-10-15T08:50:00.616Z,3.78
2022-10-15T08:52:37.762Z,2.88
2022-10-15T08:55:07.937Z,2.83
2022-10-15T08:57:39.997Z,3.42
2022-10-15T09:00:14.016Z,3.22
2022-10-15T09:02:46.509Z,4.03
2022-10-15T09:05:23.651Z,7.72
2022-10-15T09:07:54.922Z,2.25
2022-10-15T09:10:32.816Z,3.45
2022-10-15T09:13:03.029Z,2.60
2022-10-15T09:15:34.217Z,2.55
2022-10-15T09:18:02.561Z,2.80
2022-10-15T09:20:34.433Z,2.47
2022-10-15T09:23:02.759Z,3.90
2022-10-15T09:25:35.211Z,2.55
2022-10-15T09:28:08.572Z,1.45
2022-10-15T09:30:39.573Z,1.10
2022-10-15T09:33:09.257Z,2.40
2022-10-15T09:35:40.673Z,5.70
2022-10-15T09:38:16.056Z,1.08
2022-10-15T09:40:53.098Z,0.82
2022-10-15T09:43:35.371Z,1.60
2022-10-15T09:46:03.979Z,1.45
2022-10-15T09:48:34.087Z,2.33
2022-10-15T09:51:06.293Z,1.77
2022-10-15T09:53:46.923Z,3.65
2022-10-15T09:56:18.538Z,5.18
2022-10-15T09:58:51.550Z,3.10
2022-10-15T10:01:21.059Z,3.75
2022-10-15T10:03:53.816Z,1.88
2022-10-15T10:06:22.859Z,2.30
2022-10-15T10:08:54.717Z,1.98
2022-10-15T10:11:25.007Z,1.92
2022-10-15T10:13:55.322Z,2.00
2022-10-15T10:16:24.026Z,2.28
2022-10-15T10:19:06.406Z,1.80
2022-10-15T10:21:36.053Z,4.63
2022-10-15T10:24:19.174Z,2.70
2022-10-15T10:26:49.154Z,2.42
2022-10-15T10:29:32.960Z,2.90
2022-10-15T10:32:10.841Z,2.45
2022-10-15T10:34:39.144Z,1.83
2022-10-15T10:37:10.151Z,3.10
2022-10-15T10:39:38.430Z,2.97
2022-10-15T10:42:08.967Z,4.38
2022-10-15T10:44:40.470Z,3.15
2022-10-15T10:47:13.408Z,1.33
2022-10-15T10:49:42.730Z,2.47
2022-10-15T10:52:20.970Z,1.92
2022-10-15T10:54:50.110Z,2.60
2022-10-15T10:57:23.693Z,2.20
2022-10-15T10:59:53.158Z,1.17
2022-10-15T11:02:21.705Z,3.13
2022-10-15T11:04:50.027Z,2.92
2022-10-15T11:07:22.430Z,1.38
2022-10-15T11:09:55.462Z,3.20
2022-10-15T11:12:39.535Z,2.75
2022-10-15T11:15:19.345Z,1.63
2022-10-15T11:17:51.699Z,4.07
2022-10-15T11:20:39.966Z,1.50
2022-10-15T11:23:19.899Z,2.55
2022-10-15T11:25:54.479Z,1.55
2022-10-15T11:28:29.252Z,2.55
2022-10-15T11:31:01.864Z,0.95
2022-10-15T11:33:36.526Z,1.08
2022-10-15T11:36:12.448Z,0.97
2022-10-15T11:38:43.337Z,1.63
2022-10-15T11:41:21.488Z,1.42
2022-10-15T11:43:56.051Z,3.83
2022-10-15T11:46:29.315Z,1.45
2022-10-15T11:49:06.370Z,1.17
2022-10-15T11:51:42.246Z,1.92
2022-10-15T11:54:19.105Z,1.13
2022-10-15T11:56:49.252Z,1.60
2022-10-15T11:59:33.734Z,1.38
2022-10-15T12:02:05.651Z,1.92
2022-10-15T12:04:38.102Z,3.80
2022-10-15T12:07:08.026Z,2.50
2022-10-15T12:09:38.608Z,1.63
2022-10-15T12:12:10.752Z,3.47
2022-10-15T12:14:41.735Z,1.13
2022-10-15T12:17:15.976Z,4.20
2022-10-15T12:19:47.957Z,1.25
2022-10-15T12:22:33.963Z,2.13
2022-10-15T12:25:03.007Z,2.13
2022-10-15T12:27:38.390Z,1.00
2022-10-15T12:30:14.422Z,0.90
2022-10-15T12:32:46.381Z,3.42
2022-10-15T12:35:27.062Z,1.02
2022-10-15T12:37:55.371Z,3.17
2022-10-15T12:40:28.545Z,2.60
2022-10-15T12:43:00.049Z,1.90
2022-10-15T12:45:35.681Z,2.13
2022-10-15T12:48:20.304Z,0.95
2022-10-15T12:50:48.569Z,3.85
2022-10-15T12:53:34.378Z,1.98
2022-10-15T12:58:34.496Z,1.92
2022-10-15T13:01:08.108Z,4.65
2022-10-15T13:03:39.502Z,2.55
2022-10-15T13:06:25.511Z,2.47
2022-10-15T13:08:55.293Z,4.75
2022-10-15T13:11:25.809Z,0.70
2022-10-15T13:13:57.029Z,2.67
2022-10-15T13:16:25.370Z,1.45
2022-10-15T13:18:57.196Z,2.63
2022-10-15T13:21:46.401Z,4.07
2022-10-15T13:24:17.916Z,1.75
2022-10-15T13:26:46.274Z,2.78
2022-10-15T13:29:16.872Z,2.10
2022-10-15T13:31:46.057Z,1.20
2022-10-15T13:34:21.051Z,1.52
2022-10-15T13:36:49.886Z,2.38
2022-10-15T13:39:30.741Z,0.82
2022-10-15T13:42:08.365Z,2.90
2022-10-15T13:44:36.920Z,5.15
2022-10-15T13:47:05.799Z,3.38
2022-10-15T13:49:36.551Z,13.50
2022-10-15T13:52:04.898Z,2.65
2022-10-15T13:54:33.181Z,2.72
2022-10-15T13:57:02.568Z,2.03
2022-10-15T13:59:31.844Z,4.40
2022-10-15T14:02:01.305Z,6.78
2022-10-15T14:04:30.222Z,3.70
2022-10-15T14:07:03.194Z,4.35
2022-10-15T14:09:33.233Z,4.72
2022-10-15T14:12:03.096Z,2.97
2022-10-15T14:14:33.538Z,5.60
2022-10-15T14:17:02.454Z,3.20
2022-10-15T14:19:31.821Z,6.03
2022-10-15T14:22:02.568Z,3.17
2022-10-15T14:24:33.466Z,4.78
2022-10-15T14:27:06.204Z,4.25
2022-10-15T14:29:38.341Z,6.05
2022-10-15T14:32:20.449Z,3.88
2022-10-15T14:34:49.127Z,2.28
2022-10-15T14:37:32.712Z,4.38
2022-10-15T14:40:05.669Z,6.13
2022-10-15T14:42:34.565Z,2.83
2022-10-15T14:45:13.219Z,2.35
2022-10-15T14:47:42.592Z,4.95
2022-10-15T14:50:12.162Z,3.33
2022-10-15T14:52:45.558Z,5.03
2022-10-15T14:55:17.077Z,4.63
2022-10-15T14:57:48.162Z,7.05
2022-10-15T15:00:19.302Z,7.38
2022-10-15T15:02:47.636Z,5.38
2022-10-15T15:05:21.301Z,5.22
2022-10-15T15:07:51.118Z,4.70
2022-10-15T15:10:19.511Z,3.17
2022-10-15T15:12:50.826Z,3.90
2022-10-15T15:15:20.301Z,3.92
2022-10-15T15:17:48.859Z,3.85
2022-10-15T15:20:20.042Z,5.35
2022-10-15T15:22:50.292Z,5.68
2022-10-15T15:25:20.952Z,5.78
2022-10-15T15:27:49.298Z,3.85
2022-10-15T15:30:18.981Z,7.40
2022-10-15T15:32:47.993Z,8.65
2022-10-15T15:35:20.788Z,6.05
2022-10-15T15:37:49.166Z,6.55
2022-10-15T15:40:17.522Z,5.25
2022-10-15T15:42:47.584Z,6.15
2022-10-15T15:45:19.382Z,6.45
2022-10-15T15:47:47.895Z,5.90
2022-10-15T15:50:16.207Z,5.60
2022-10-15T15:52:44.489Z,4.90
2022-10-15T15:55:13.143Z,4.07
2022-10-15T15:57:41.427Z,4.63
2022-10-15T16:00:11.886Z,4.88
2022-10-15T16:02:40.777Z,7.57
2022-10-15T16:05:09.740Z,6.70
2022-10-15T16:07:38.139Z,5.60
2022-10-15T16:10:09.276Z,3.67
2022-10-15T16:12:37.542Z,7.15
2022-10-15T16:15:07.915Z,5.55
2022-10-15T16:17:40.376Z,4.93
2022-10-15T16:20:09.239Z,5.50
2022-10-15T16:22:37.469Z,6.15
2022-10-15T16:25:06.012Z,3.83
2022-10-15T16:27:34.523Z,9.48
2022-10-15T16:30:02.943Z,10.65
2022-10-15T16:32:31.274Z,6.60
2022-10-15T16:35:00.877Z,4.88
2022-10-15T16:37:29.231Z,5.20
2022-10-15T16:39:58.236Z,7.53
2022-10-15T16:42:26.520Z,8.35
2022-10-15T16:44:54.846Z,5.28
2022-10-15T16:47:23.435Z,5.57
2022-10-15T16:49:51.936Z,4.18
2022-10-15T16:52:21.579Z,4.13
2022-10-15T16:54:49.891Z,5.97
2022-10-15T16:57:18.167Z,6.15
2022-10-15T16:59:46.489Z,10.00
2022-10-15T17:02:14.733Z,5.00
2022-10-15T17:04:42.984Z,7.75
2022-10-15T17:07:11.278Z,3.35
2022-10-15T17:09:40.958Z,6.85
2022-10-15T17:12:09.269Z,8.63
2022-10-15T17:14:37.660Z,4.18
2022-10-15T17:17:07.655Z,5.60
2022-10-15T17:19:36.101Z,6.55
2022-10-15T17:22:04.535Z,7.85
2022-10-15T17:24:32.846Z,7.00
2022-10-15T17:27:02.469Z,8.63
2022-10-15T17:29:32.562Z,3.65
2022-10-15T17:32:05.893Z,5.10
2022-10-15T17:34:34.305Z,8.95
2022-10-15T17:37:02.274Z,7.97
2022-10-15T17:39:30.246Z,9.90
2022-10-15T17:41:58.326Z,4.63
2022-10-15T17:44:27.696Z,7.18
2022-10-15T17:46:55.679Z,7.43
2022-10-15T17:49:23.660Z,8.02
2022-10-15T17:51:51.635Z,5.10
2022-10-15T17:54:20.263Z,6.65
2022-10-15T17:56:48.653Z,7.07
2022-10-15T17:59:16.723Z,4.85
2022-10-15T18:02:01.500Z,8.88
2022-10-15T18:04:30.191Z,6.50
2022-10-15T18:06:58.398Z,8.00
2022-10-15T18:09:26.640Z,7.68
2022-10-15T18:11:54.727Z,10.70
2022-10-15T18:14:22.959Z,8.02
2022-10-15T18:16:52.368Z,7.60
2022-10-15T18:19:20.352Z,8.05
2022-10-15T18:21:49.763Z,4.93
2022-10-15T18:24:21.374Z,8.98
2022-10-15T18:26:50.163Z,11.85
2022-10-15T18:29:18.272Z,6.45
2022-10-15T18:31:46.749Z,10.18
2022-10-15T18:34:16.332Z,7.32
2022-10-15T18:36:44.573Z,8.68
2022-10-15T18:39:12.603Z,9.23
2022-10-15T18:41:41.110Z,13.48
2022-10-15T18:44:14.803Z,14.63
2022-10-15T18:46:44.895Z,8.15
2022-10-15T18:49:16.068Z,8.45
2022-10-15T18:51:46.053Z,7.93
2022-10-15T18:54:14.400Z,6.93
2022-10-15T18:56:42.357Z,8.20
2022-10-15T18:59:10.715Z,9.68
2022-10-15T19:01:41.703Z,11.73
2022-10-15T19:04:11.676Z,8.93
2022-10-15T19:06:42.536Z,7.85
2022-10-15T19:09:13.279Z,7.53
2022-10-15T19:11:42.839Z,10.77
2022-10-15T19:14:11.191Z,10.63
2022-10-15T19:16:39.189Z,16.83
2022-10-15T19:19:07.424Z,12.57
2022-10-15T19:21:37.501Z,10.40
2022-10-15T19:24:07.314Z,9.35
2022-10-15T19:26:35.883Z,6.40
2022-10-15T19:29:04.778Z,13.70
2022-10-15T19:31:35.935Z,11.93
2022-10-15T19:34:04.077Z,8.73
2022-10-15T19:36:35.326Z,76.07
2022-10-15T19:39:07.021Z,29.00
2022-10-15T19:41:37.148Z,44.92
2022-10-15T19:44:07.847Z,40.28
2022-10-15T19:46:35.919Z,67.97
2022-10-15T19:49:04.228Z,82.20
2022-10-15T19:51:32.318Z,45.20
2022-10-15T19:54:00.286Z,42.92
2022-10-15T19:56:30.421Z,39.30
2022-10-15T19:58:59.770Z,38.85
2022-10-15T20:01:29.013Z,22.20
2022-10-15T20:04:01.611Z,27.85
2022-10-15T20:06:33.223Z,22.65
2022-10-15T20:09:02.110Z,20.30
2022-10-15T20:11:31.725Z,14.65
2022-10-15T20:13:59.861Z,14.48
2022-10-15T20:16:32.453Z,10.40
2022-10-15T20:19:02.598Z,8.13
2022-10-15T20:21:30.679Z,9.60
2022-10-15T20:23:58.843Z,12.73
2022-10-15T20:26:26.865Z,11.93
2022-10-15T20:28:56.318Z,13.07
2022-10-15T20:31:28.556Z,9.07
2022-10-15T20:33:56.663Z,12.63
2022-10-15T20:36:27.315Z,12.55
2022-10-15T20:38:57.350Z,11.88
2022-10-15T20:41:25.797Z,11.02
2022-10-15T20:43:56.968Z,11.20
2022-10-15T20:46:28.635Z,15.48
2022-10-15T20:49:02.169Z,13.13
2022-10-15T20:51:33.109Z,12.65
2022-10-15T20:54:02.283Z,12.82
2022-10-15T20:56:30.271Z,9.48
2022-10-15T20:58:59.560Z,8.95
2022-10-15T21:01:27.565Z,11.35
2022-10-15T21:03:55.541Z,7.55
2022-10-15T21:06:23.796Z,8.57
2022-10-15T21:08:51.828Z,8.85
2022-10-15T21:11:19.784Z,8.07
2022-10-15T21:13:47.726Z,8.50
2022-10-15T21:16:17.396Z,10.23
2022-10-15T21:18:45.394Z,8.23
2022-10-15T21:21:15.484Z,7.57
2022-10-15T21:23:43.820Z,7.47
2022-10-15T21:26:13.310Z,5.75
2022-10-15T21:28:41.935Z,7.03
2022-10-15T21:31:12.509Z,12.57
2022-10-15T21:33:42.644Z,11.27
2022-10-15T21:36:12.447Z,8.65
2022-10-15T21:38:40.494Z,7.57
2022-10-15T21:41:08.676Z,9.82
2022-10-15T21:43:37.028Z,10.93
2022-10-15T21:46:06.868Z,6.82
2022-10-15T21:48:36.526Z,8.13
2022-10-15T21:51:09.367Z,9.07
2022-10-15T21:53:37.830Z,10.82
2022-10-15T21:56:07.999Z,7.70
2022-10-15T21:58:37.778Z,5.25
2022-10-15T22:01:10.156Z,7.53
2022-10-15T22:03:38.727Z,8.35
2022-10-15T22:06:08.750Z,6.43
2022-10-15T22:08:37.279Z,9.93
2022-10-15T22:11:09.295Z,7.97
2022-10-15T22:13:37.626Z,11.32
2022-10-15T22:16:06.206Z,6.88
2022-10-15T22:18:34.493Z,5.35
2022-10-15T22:21:15.060Z,4.63
2022-10-15T22:23:43.895Z,6.15
2022-10-15T22:26:12.161Z,6.78
2022-10-15T22:28:40.523Z,10.95
2022-10-15T22:31:10.205Z,9.13
2022-10-15T22:33:38.754Z,10.68
2022-10-15T22:36:13.115Z,8.30
2022-10-15T22:38:42.888Z,8.52
2022-10-15T22:41:11.535Z,10.20
2022-10-15T22:43:39.846Z,6.20
2022-10-15T22:46:08.655Z,8.40
2022-10-15T22:48:37.766Z,7.90
2022-10-15T22:51:06.524Z,6.80
2022-10-15T22:53:34.845Z,8.15
2022-10-15T22:56:05.263Z,7.05
2022-10-15T22:58:34.220Z,4.90
2022-10-15T23:01:08.211Z,6.75
2022-10-15T23:03:36.893Z,4.97
2022-10-15T23:06:05.366Z,5.95
2022-10-15T23:08:33.944Z,7.78
2022-10-15T23:11:10.433Z,5.75
2022-10-15T23:13:38.991Z,6.10
2022-10-15T23:16:08.142Z,5.65
2022-10-15T23:18:36.438Z,3.47
2022-10-15T23:21:06.131Z,6.32
2022-10-15T23:23:34.622Z,7.95
2022-10-15T23:26:02.866Z,6.43
2022-10-15T23:28:32.508Z,4.75
2022-10-15T23:31:00.776Z,7.68
2022-10-15T23:33:29.025Z,5.70
2022-10-15T23:36:01.286Z,7.43
2022-10-15T23:38:29.847Z,4.43
2022-10-15T23:41:01.658Z,3.55
2022-10-15T23:43:29.924Z,7.75
2022-10-15T23:45:59.820Z,5.38
2022-10-15T23:48:28.182Z,3.58
2022-10-15T23:51:00.815Z,2.60
2022-10-15T23:53:32.853Z,5.07
2022-10-15T23:56:02.891Z,3.88
2022-10-15T23:58:32.153Z,5.10
